createdAt,value
2018-11-23T00:00:37.019Z,984.55
2018-11-23T00:01:36.982Z,984.61
2018-11-23T00:02:36.936Z,984.54
2018-11-23T00:03:36.889Z,984.51
2018-11-23T00:04:36.847Z,984.52
2018-11-23T00:05:36.800Z,984.53
2018-11-23T00:06:36.757Z,984.49
2018-11-23T00:07:36.714Z,984.51
2018-11-23T00:08:36.677Z,984.54
2018-11-23T00:09:36.636Z,984.54
2018-11-23T00:10:36.590Z,984.57
2018-11-23T00:11:36.545Z,984.50
2018-11-23T00:12:36.501Z,984.52
2018-11-23T00:13:36.455Z,984.52
2018-11-23T00:14:36.418Z,984.55
2018-11-23T00:15:36.371Z,984.56
2018-11-23T00:16:36.331Z,984.53
2018-11-23T00:17:36.307Z,984.54
2018-11-23T00:18:36.239Z,984.58
2018-11-23T00:19:36.222Z,984.54
2018-11-23T00:20:36.156Z,984.53
2018-11-23T00:21:44.781Z,984.55
2018-11-23T00:23:40.515Z,984.49
2018-11-23T00:24:40.445Z,984.49
2018-11-23T00:25:40.403Z,984.49
2018-11-23T00:26:40.356Z,984.50
2018-11-23T00:27:40.316Z,984.52
2018-11-23T00:28:40.272Z,984.48
2018-11-23T00:29:40.230Z,984.47
2018-11-23T00:30:40.181Z,984.50
2018-11-23T00:31:40.142Z,984.48
2018-11-23T00:32:40.096Z,984.50
2018-11-23T00:33:40.053Z,984.53
2018-11-23T00:34:40.015Z,984.52
2018-11-23T00:35:39.969Z,984.48
2018-11-23T00:36:39.927Z,984.51
2018-11-23T00:37:39.883Z,984.50
2018-11-23T00:38:39.837Z,984.51
2018-11-23T00:39:39.807Z,984.52
2018-11-23T00:40:39.750Z,984.50
2018-11-23T00:41:39.707Z,984.48
2018-11-23T00:42:39.673Z,984.48
2018-11-23T00:43:39.624Z,984.53
2018-11-23T00:44:39.576Z,984.52
2018-11-23T00:45:43.027Z,984.52
2018-11-23T00:46:39.494Z,984.50
2018-11-23T00:47:39.452Z,984.48
2018-11-23T00:48:39.411Z,984.54
2018-11-23T00:49:39.362Z,984.56
2018-11-23T00:50:39.317Z,984.52
2018-11-23T00:51:39.273Z,984.49
2018-11-23T00:52:39.235Z,984.51
2018-11-23T00:53:39.189Z,984.52
2018-11-23T00:54:39.148Z,984.52
2018-11-23T00:55:39.105Z,984.59
2018-11-23T00:56:39.063Z,984.55
2018-11-23T00:57:39.017Z,984.54
2018-11-23T00:58:38.972Z,984.55
2018-11-23T00:59:38.929Z,984.48
2018-11-23T01:00:38.890Z,984.51
2018-11-23T01:01:38.844Z,984.47
2018-11-23T01:02:38.799Z,984.48
2018-11-23T01:03:38.754Z,984.49
2018-11-23T01:04:38.710Z,984.48
2018-11-23T01:05:38.675Z,984.50
2018-11-23T01:06:38.643Z,984.47
2018-11-23T01:07:38.585Z,984.46
2018-11-23T01:08:38.545Z,984.46
2018-11-23T01:09:38.498Z,984.44
2018-11-23T01:10:38.459Z,984.43
2018-11-23T01:11:38.409Z,984.41
2018-11-23T01:12:38.366Z,984.42
2018-11-23T01:13:38.324Z,984.43
2018-11-23T01:14:38.283Z,984.45
2018-11-23T01:15:38.242Z,984.43
2018-11-23T01:16:38.193Z,984.47
2018-11-23T01:17:38.151Z,984.46
2018-11-23T01:18:38.111Z,984.47
2018-11-23T01:19:38.076Z,984.50
2018-11-23T01:20:38.028Z,984.48
2018-11-23T01:21:37.981Z,984.48
2018-11-23T01:22:37.939Z,984.49
2018-11-23T01:23:37.891Z,984.48
2018-11-23T01:24:37.846Z,984.48
2018-11-23T01:25:37.805Z,984.47
2018-11-23T01:26:37.766Z,984.45
2018-11-23T01:27:37.726Z,984.46
2018-11-23T01:28:37.680Z,984.52
2018-11-23T01:29:37.639Z,984.52
2018-11-23T01:30:37.591Z,984.51
2018-11-23T01:31:37.547Z,984.50
2018-11-23T01:32:37.506Z,984.49
2018-11-23T01:33:37.464Z,984.49
2018-11-23T01:34:37.417Z,984.46
2018-11-23T01:35:37.374Z,984.47
2018-11-23T01:36:37.331Z,984.46
2018-11-23T01:37:37.288Z,984.46
2018-11-23T01:38:37.247Z,984.52
2018-11-23T01:39:37.204Z,984.53
2018-11-23T01:40:37.161Z,984.55
2018-11-23T01:41:37.116Z,984.59
2018-11-23T01:42:37.073Z,984.54
2018-11-23T01:43:37.028Z,984.56
2018-11-23T01:44:36.987Z,984.58
2018-11-23T01:45:36.941Z,984.53
2018-11-23T01:46:36.904Z,984.50
2018-11-23T01:47:36.863Z,984.55
2018-11-23T01:48:36.811Z,984.56
2018-11-23T01:49:36.768Z,984.55
2018-11-23T01:50:36.727Z,984.60
2018-11-23T01:51:36.705Z,984.63
2018-11-23T01:52:36.642Z,984.58
2018-11-23T01:53:36.616Z,984.57
2018-11-23T01:54:36.555Z,984.65
2018-11-23T01:55:36.513Z,984.59
2018-11-23T01:56:36.470Z,984.57
2018-11-23T01:57:36.427Z,984.57
2018-11-23T01:58:36.382Z,984.55
2018-11-23T01:59:36.341Z,984.50
2018-11-23T02:00:36.297Z,984.48
2018-11-23T02:01:36.275Z,984.45
2018-11-23T02:02:36.206Z,984.52
2018-11-23T02:03:36.163Z,984.48
2018-11-23T02:04:36.124Z,984.50
2018-11-23T02:05:36.081Z,984.49
2018-11-23T02:06:36.033Z,984.55
2018-11-23T02:07:35.989Z,984.56
2018-11-23T02:08:35.944Z,984.59
2018-11-23T02:09:35.904Z,984.58
2018-11-23T02:10:35.864Z,984.57
2018-11-23T02:11:35.823Z,984.55
2018-11-23T02:12:35.777Z,984.52
2018-11-23T02:13:35.734Z,984.51
2018-11-23T02:14:35.690Z,984.48
2018-11-23T02:15:35.643Z,984.45
2018-11-23T02:16:35.600Z,984.46
2018-11-23T02:17:35.557Z,984.48
2018-11-23T02:18:35.517Z,984.45
2018-11-23T02:19:35.476Z,984.49
2018-11-23T02:20:35.426Z,984.48
2018-11-23T02:21:35.386Z,984.49
2018-11-23T02:22:35.346Z,984.52
2018-11-23T02:23:35.312Z,984.46
2018-11-23T02:24:35.259Z,984.54
2018-11-23T02:25:35.220Z,984.47
2018-11-23T02:26:35.171Z,984.50
2018-11-23T02:27:35.128Z,984.51
2018-11-23T02:28:35.080Z,984.48
2018-11-23T02:29:35.045Z,984.50
2018-11-23T02:30:35.005Z,984.55
2018-11-23T02:31:34.967Z,984.53
2018-11-23T02:32:34.923Z,984.59
2018-11-23T02:33:34.881Z,984.59
2018-11-23T02:34:34.837Z,984.58
2018-11-23T02:35:34.783Z,984.57
2018-11-23T02:36:34.749Z,984.56
2018-11-23T02:37:34.726Z,984.56
2018-11-23T02:38:34.671Z,984.51
2018-11-23T02:39:34.617Z,984.55
2018-11-23T02:40:34.565Z,984.55
2018-11-23T02:41:34.529Z,984.58
2018-11-23T02:42:34.496Z,984.57
2018-11-23T02:43:34.461Z,984.53
2018-11-23T02:44:34.399Z,984.55
2018-11-23T02:45:34.353Z,984.53
2018-11-23T02:46:34.317Z,984.53
2018-11-23T02:47:34.278Z,984.53
2018-11-23T02:48:34.221Z,984.54
2018-11-23T02:49:34.176Z,984.55
2018-11-23T02:50:34.139Z,984.53
2018-11-23T02:51:34.100Z,984.53
2018-11-23T02:52:34.049Z,984.53
2018-11-23T02:53:34.008Z,984.52
2018-11-23T02:54:33.969Z,984.52
2018-11-23T02:55:33.922Z,984.55
2018-11-23T02:56:33.882Z,984.56
2018-11-23T02:57:33.836Z,984.54
2018-11-23T02:58:33.787Z,984.55
2018-11-23T02:59:33.750Z,984.52
2018-11-23T03:00:33.699Z,984.54
2018-11-23T03:01:33.663Z,984.52
2018-11-23T03:02:33.619Z,984.55
2018-11-23T03:03:33.581Z,984.48
2018-11-23T03:04:33.534Z,984.50
2018-11-23T03:05:33.489Z,984.48
2018-11-23T03:06:33.444Z,984.49
2018-11-23T03:07:33.406Z,984.46
2018-11-23T03:08:33.364Z,984.47
2018-11-23T03:09:33.323Z,984.48
2018-11-23T03:10:33.274Z,984.48
2018-11-23T03:11:33.232Z,984.46
2018-11-23T03:12:33.189Z,984.43
2018-11-23T03:13:33.141Z,984.42
2018-11-23T03:14:33.121Z,984.44
2018-11-23T03:15:33.068Z,984.40
2018-11-23T03:16:33.025Z,984.39
2018-11-23T03:17:32.978Z,984.40
2018-11-23T03:18:32.927Z,984.38
2018-11-23T03:19:32.881Z,984.36
2018-11-23T03:20:32.836Z,984.34
2018-11-23T03:21:32.811Z,984.31
2018-11-23T03:22:32.754Z,984.30
2018-11-23T03:23:32.727Z,984.29
2018-11-23T03:24:32.664Z,984.28
2018-11-23T03:25:32.649Z,984.31
2018-11-23T03:26:32.596Z,984.28
2018-11-23T03:27:32.565Z,984.31
2018-11-23T03:28:32.502Z,984.30
2018-11-23T03:29:32.476Z,984.28
2018-11-23T03:30:32.409Z,984.29
2018-11-23T03:31:32.372Z,984.28
2018-11-23T03:32:32.321Z,984.26
2018-11-23T03:33:32.309Z,984.27
2018-11-23T03:34:32.239Z,984.29
2018-11-23T03:35:32.201Z,984.28
2018-11-23T03:36:32.156Z,984.29
2018-11-23T03:37:32.116Z,984.28
2018-11-23T03:38:32.067Z,984.32
2018-11-23T03:39:34.136Z,984.28
2018-11-23T03:40:31.985Z,984.29
2018-11-23T03:41:31.936Z,984.30
2018-11-23T03:42:31.893Z,984.25
2018-11-23T03:43:31.854Z,984.32
2018-11-23T03:44:31.812Z,984.30
2018-11-23T03:45:31.767Z,984.33
2018-11-23T03:46:31.725Z,984.29
2018-11-23T03:47:31.680Z,984.33
2018-11-23T03:48:31.640Z,984.32
2018-11-23T03:49:31.594Z,984.29
2018-11-23T03:50:31.554Z,984.32
2018-11-23T03:51:31.514Z,984.31
2018-11-23T04:06:37.336Z,984.37
2018-11-23T04:07:37.246Z,984.30
2018-11-23T04:08:37.183Z,984.33
2018-11-23T04:09:37.131Z,984.34
2018-11-23T04:10:37.076Z,984.34
2018-11-23T04:11:37.123Z,984.31
2018-11-23T04:12:36.989Z,984.34
2018-11-23T04:13:36.946Z,984.38
2018-11-23T04:14:36.903Z,984.35
2018-11-23T04:15:36.860Z,984.34
2018-11-23T04:16:36.822Z,984.32
2018-11-23T04:17:36.770Z,984.33
2018-11-23T04:18:36.726Z,984.30
2018-11-23T04:19:36.685Z,984.28
2018-11-23T04:20:36.633Z,984.31
2018-11-23T04:21:36.592Z,984.30
2018-11-23T04:22:36.552Z,984.27
2018-11-23T04:23:36.525Z,984.24
2018-11-23T04:24:36.457Z,984.24
2018-11-23T04:25:36.430Z,984.25
2018-11-23T04:26:36.385Z,984.23
2018-11-23T04:27:36.332Z,984.24
2018-11-23T04:28:36.284Z,984.29
2018-11-23T04:29:36.241Z,984.29
2018-11-23T04:30:36.202Z,984.32
2018-11-23T04:31:36.151Z,984.33
2018-11-23T04:32:36.109Z,984.29
2018-11-23T04:33:36.079Z,984.30
2018-11-23T04:34:36.027Z,984.27
2018-11-23T04:35:35.975Z,984.29
2018-11-23T04:36:35.935Z,984.32
2018-11-23T04:37:35.906Z,984.31
2018-11-23T04:38:35.883Z,984.27
2018-11-23T04:39:35.830Z,984.25
2018-11-23T04:40:35.764Z,984.26
2018-11-23T04:41:35.726Z,984.28
2018-11-23T04:42:35.687Z,984.25
2018-11-23T04:43:35.653Z,984.25
2018-11-23T04:44:35.598Z,984.29
2018-11-23T04:45:35.552Z,984.31
2018-11-23T04:46:35.514Z,984.30
2018-11-23T04:47:35.484Z,984.30
2018-11-23T04:48:35.440Z,984.29
2018-11-23T04:49:35.403Z,984.26
2018-11-23T04:50:35.354Z,984.32
2018-11-23T04:51:35.293Z,984.33
2018-11-23T04:52:35.251Z,984.34
2018-11-23T04:53:35.200Z,984.32
2018-11-23T04:54:35.159Z,984.31
2018-11-23T04:55:35.119Z,984.29
2018-11-23T04:56:35.070Z,984.35
2018-11-23T04:57:35.027Z,984.33
2018-11-23T04:58:34.997Z,984.30
2018-11-23T04:59:34.961Z,984.27
2018-11-23T05:00:34.903Z,984.30
2018-11-23T05:01:34.853Z,984.26
2018-11-23T05:02:34.808Z,984.23
2018-11-23T05:03:34.772Z,984.24
2018-11-23T05:04:34.743Z,984.23
2018-11-23T05:05:34.686Z,984.23
2018-11-23T05:06:34.646Z,984.19
2018-11-23T05:07:34.595Z,984.21
2018-11-23T05:08:34.556Z,984.21
2018-11-23T05:09:34.521Z,984.20
2018-11-23T05:10:34.473Z,984.19
2018-11-23T05:11:34.428Z,984.22
2018-11-23T05:12:34.392Z,984.18
2018-11-23T05:13:34.349Z,984.12
2018-11-23T05:14:34.298Z,984.11
2018-11-23T05:15:34.286Z,984.10
2018-11-23T05:16:34.226Z,984.07
2018-11-23T05:17:34.172Z,984.09
2018-11-23T05:18:34.148Z,984.12
2018-11-23T05:19:34.090Z,984.11
2018-11-23T05:20:34.046Z,984.13
2018-11-23T05:21:34.009Z,984.09
2018-11-23T05:22:33.964Z,984.12
2018-11-23T05:23:33.916Z,984.13
2018-11-23T05:24:33.870Z,984.16
2018-11-23T05:25:33.825Z,984.18
2018-11-23T05:26:33.781Z,984.20
2018-11-23T05:27:33.738Z,984.14
2018-11-23T05:28:33.693Z,984.17
2018-11-23T05:29:33.656Z,984.14
2018-11-23T05:30:33.616Z,984.19
2018-11-23T05:31:33.568Z,984.16
2018-11-23T05:32:33.532Z,984.15
2018-11-23T05:33:33.479Z,984.18
2018-11-23T05:34:33.439Z,984.20
2018-11-23T05:35:33.393Z,984.18
2018-11-23T05:36:33.350Z,984.19
2018-11-23T05:37:33.304Z,984.23
2018-11-23T05:38:33.279Z,984.16
2018-11-23T05:39:33.225Z,984.16
2018-11-23T05:40:33.203Z,984.15
2018-11-23T05:41:33.136Z,984.15
2018-11-23T05:42:33.099Z,984.14
2018-11-23T05:43:33.105Z,984.11
2018-11-23T05:44:33.430Z,984.13
2018-11-23T05:45:32.962Z,984.15
2018-11-23T05:46:32.917Z,984.14
2018-11-23T05:47:32.881Z,984.08
2018-11-23T05:48:32.838Z,984.10
2018-11-23T05:49:32.805Z,984.08
2018-11-23T05:50:32.752Z,984.11
2018-11-23T05:51:32.718Z,984.12
2018-11-23T05:52:32.681Z,984.12
2018-11-23T05:53:32.644Z,984.10
2018-11-23T05:54:32.582Z,984.08
2018-11-23T05:55:32.534Z,984.09
2018-11-23T05:56:32.495Z,984.05
2018-11-23T05:57:32.520Z,984.08
2018-11-23T05:58:32.400Z,984.04
2018-11-23T05:59:32.365Z,984.02
2018-11-23T06:00:32.313Z,984.01
2018-11-23T06:01:32.275Z,984.00
2018-11-23T06:02:32.266Z,984.00
2018-11-23T06:03:32.191Z,983.98
2018-11-23T06:04:32.152Z,983.94
2018-11-23T06:05:32.103Z,983.96
2018-11-23T06:06:32.062Z,983.93
2018-11-23T06:07:32.014Z,983.96
2018-11-23T06:08:31.972Z,983.99
2018-11-23T06:09:31.930Z,983.94
2018-11-23T06:10:31.898Z,983.97
2018-11-23T06:11:31.840Z,983.98
2018-11-23T06:12:31.803Z,984.01
2018-11-23T06:13:31.762Z,984.00
2018-11-23T06:14:31.719Z,984.03
2018-11-23T06:15:31.675Z,984.02
2018-11-23T06:16:31.636Z,984.00
2018-11-23T06:17:31.588Z,984.03
2018-11-23T06:18:31.556Z,984.05
2018-11-23T06:19:31.500Z,984.05
2018-11-23T06:20:31.458Z,984.10
2018-11-23T06:21:31.414Z,984.08
2018-11-23T06:22:31.377Z,984.16
2018-11-23T06:23:31.330Z,984.13
2018-11-23T06:24:32.122Z,984.19
2018-11-23T06:25:31.243Z,984.15
2018-11-23T06:26:31.197Z,984.14
2018-11-23T06:27:31.161Z,984.16
2018-11-23T06:28:31.114Z,984.15
2018-11-23T06:29:31.068Z,984.19
2018-11-23T06:30:31.024Z,984.18
2018-11-23T06:31:30.982Z,984.19
2018-11-23T06:32:30.946Z,984.21
2018-11-23T06:33:30.939Z,984.15
2018-11-23T06:34:30.859Z,984.19
2018-11-23T06:35:30.816Z,984.14
2018-11-23T06:36:30.777Z,984.16
2018-11-23T06:37:30.732Z,984.14
2018-11-23T06:38:30.687Z,984.14
2018-11-23T06:39:30.641Z,984.13
2018-11-23T06:40:30.601Z,984.14
2018-11-23T06:41:30.557Z,984.09
2018-11-23T06:42:30.517Z,984.10
2018-11-23T06:43:30.468Z,984.07
2018-11-23T06:44:30.429Z,984.06
2018-11-23T06:45:30.384Z,984.02
2018-11-23T06:46:30.347Z,984.06
2018-11-23T06:47:30.305Z,984.05
2018-11-23T06:48:30.257Z,984.09
2018-11-23T06:49:30.211Z,984.12
2018-11-23T06:50:30.166Z,984.12
2018-11-23T06:51:30.167Z,984.13
2018-11-23T06:52:30.092Z,984.13
2018-11-23T06:53:30.038Z,984.10
2018-11-23T06:54:29.998Z,984.12
2018-11-23T06:55:29.955Z,984.10
2018-11-23T06:56:29.921Z,984.08
2018-11-23T06:57:29.875Z,984.08
2018-11-23T06:58:29.828Z,984.08
2018-11-23T06:59:29.784Z,984.13
2018-11-23T07:00:29.737Z,984.15
2018-11-23T07:01:29.699Z,984.18
2018-11-23T07:02:29.657Z,984.22
2018-11-23T07:03:29.610Z,984.19
2018-11-23T07:04:29.580Z,984.17
2018-11-23T07:05:29.521Z,984.20
2018-11-23T07:06:29.485Z,984.19
2018-11-23T07:07:29.439Z,984.15
2018-11-23T07:08:29.393Z,984.17
2018-11-23T07:09:29.356Z,984.19
2018-11-23T07:10:29.313Z,984.18
2018-11-23T07:11:29.288Z,984.16
2018-11-23T07:12:29.242Z,984.17
2018-11-23T07:13:29.177Z,984.25
2018-11-23T07:14:29.142Z,984.22
2018-11-23T07:15:29.097Z,984.23
2018-11-23T07:16:29.055Z,984.22
2018-11-23T07:17:29.009Z,984.22
2018-11-23T07:18:28.965Z,984.19
2018-11-23T07:19:28.923Z,984.21
2018-11-23T07:20:28.888Z,984.16
2018-11-23T07:21:28.839Z,984.12
2018-11-23T07:22:28.801Z,984.09
2018-11-23T07:23:28.754Z,984.11
2018-11-23T07:24:28.713Z,984.09
2018-11-23T07:25:28.663Z,984.09
2018-11-23T07:26:28.623Z,984.10
2018-11-23T07:27:28.582Z,984.10
2018-11-23T07:28:28.532Z,984.15
2018-11-23T07:29:28.497Z,984.17
2018-11-23T07:30:28.454Z,984.19
2018-11-23T07:31:28.407Z,984.20
2018-11-23T07:32:28.363Z,984.20
2018-11-23T07:33:28.324Z,984.20
2018-11-23T07:34:28.282Z,984.24
2018-11-23T07:35:28.236Z,984.26
2018-11-23T07:36:28.201Z,984.29
2018-11-23T07:37:28.150Z,984.30
2018-11-23T07:38:28.106Z,984.29
2018-11-23T07:39:28.063Z,984.26
2018-11-23T07:40:28.026Z,984.31
2018-11-23T07:41:27.980Z,984.32
2018-11-23T07:42:27.938Z,984.29
2018-11-23T07:43:27.894Z,984.27
2018-11-23T07:44:27.855Z,984.29
2018-11-23T07:45:27.803Z,984.30
2018-11-23T07:46:27.763Z,984.31
2018-11-23T07:47:27.724Z,984.29
2018-11-23T07:48:27.690Z,984.33
2018-11-23T07:49:27.636Z,984.31
2018-11-23T07:50:27.600Z,984.33
2018-11-23T07:51:27.552Z,984.33
2018-11-23T07:52:27.509Z,984.36
2018-11-23T07:53:27.469Z,984.33
2018-11-23T07:54:27.427Z,984.34
2018-11-23T07:55:27.386Z,984.34
2018-11-23T07:56:27.340Z,984.34
2018-11-23T07:57:27.293Z,984.34
2018-11-23T07:58:27.253Z,984.33
2018-11-23T07:59:27.208Z,984.34
2018-11-23T08:00:27.167Z,984.30
2018-11-23T08:01:27.127Z,984.33
2018-11-23T08:02:27.082Z,984.29
2018-11-23T08:03:27.045Z,984.29
2018-11-23T08:04:27.000Z,984.31
2018-11-23T08:05:26.956Z,984.29
2018-11-23T08:06:26.912Z,984.32
2018-11-23T08:07:26.871Z,984.28
2018-11-23T08:08:26.830Z,984.28
2018-11-23T08:09:26.780Z,984.30
2018-11-23T08:10:26.739Z,984.28
2018-11-23T08:11:26.703Z,984.27
2018-11-23T08:12:26.654Z,984.26
2018-11-23T08:13:26.617Z,984.23
2018-11-23T08:14:26.574Z,984.20
2018-11-23T08:15:26.531Z,984.23
2018-11-23T08:16:26.499Z,984.24
2018-11-23T08:17:26.442Z,984.22
2018-11-23T08:18:26.402Z,984.26
2018-11-23T08:19:26.363Z,984.23
2018-11-23T08:20:26.322Z,984.17
2018-11-23T08:21:26.273Z,984.23
2018-11-23T08:22:26.233Z,984.19
2018-11-23T08:23:26.192Z,984.18
2018-11-23T08:24:27.142Z,984.20
2018-11-23T08:25:26.108Z,984.20
2018-11-23T08:26:26.064Z,984.20
2018-11-23T08:27:26.027Z,984.18
2018-11-23T08:28:25.983Z,984.21
2018-11-23T08:29:25.935Z,984.22
2018-11-23T08:30:25.893Z,984.22
2018-11-23T08:31:25.850Z,984.19
2018-11-23T08:32:25.810Z,984.23
2018-11-23T08:33:25.799Z,984.22
2018-11-23T08:34:25.739Z,984.22
2018-11-23T08:35:25.685Z,984.24
2018-11-23T08:36:25.641Z,984.25
2018-11-23T08:37:25.599Z,984.27
2018-11-23T08:38:25.558Z,984.25
2018-11-23T08:39:25.516Z,984.25
2018-11-23T08:40:25.474Z,984.20
2018-11-23T08:41:25.426Z,984.21
2018-11-23T08:42:25.388Z,984.25
2018-11-23T08:43:25.351Z,984.19
2018-11-23T08:44:25.301Z,984.18
2018-11-23T08:45:25.265Z,984.22
2018-11-23T08:46:25.231Z,984.18
2018-11-23T08:47:25.181Z,984.17
2018-11-23T08:48:25.140Z,984.15
2018-11-23T08:49:25.089Z,984.15
2018-11-23T08:50:25.058Z,984.14
2018-11-23T08:51:25.015Z,984.16
2018-11-23T08:52:24.972Z,984.11
2018-11-23T08:53:27.979Z,984.11
2018-11-23T08:54:24.883Z,984.14
2018-11-23T08:55:24.843Z,984.12
2018-11-23T08:56:24.796Z,984.10
2018-11-23T08:57:24.764Z,984.11
2018-11-23T08:58:24.719Z,984.09
2018-11-23T08:59:24.673Z,984.10
2018-11-23T09:00:24.641Z,984.09
2018-11-23T09:01:24.588Z,984.09
2018-11-23T09:02:24.549Z,984.08
2018-11-23T09:03:24.504Z,984.05
2018-11-23T09:04:33.124Z,984.08
2018-11-23T09:06:28.868Z,984.08
2018-11-23T09:07:28.793Z,984.06
2018-11-23T09:08:28.751Z,984.07
2018-11-23T09:09:28.710Z,984.06
2018-11-23T09:10:28.667Z,984.06
2018-11-23T09:11:28.629Z,984.09
2018-11-23T09:12:28.584Z,984.04
2018-11-23T09:13:28.542Z,984.06
2018-11-23T09:14:28.497Z,984.08
2018-11-23T09:15:28.538Z,984.06
2018-11-23T09:16:28.417Z,984.06
2018-11-23T09:17:28.376Z,984.10
2018-11-23T09:18:28.337Z,984.06
2018-11-23T09:19:28.290Z,984.09
2018-11-23T09:20:28.252Z,984.11
2018-11-23T09:21:28.208Z,984.13
2018-11-23T09:22:28.166Z,984.10
2018-11-23T09:23:28.129Z,984.14
2018-11-23T09:24:28.085Z,984.10
2018-11-23T09:25:28.043Z,984.13
2018-11-23T09:26:28.007Z,984.10
2018-11-23T09:27:27.957Z,984.09
2018-11-23T09:28:27.916Z,984.10
2018-11-23T09:29:27.877Z,984.10
2018-11-23T09:30:27.839Z,984.07
2018-11-23T09:31:27.822Z,984.07
2018-11-23T09:32:27.750Z,984.06
2018-11-23T09:33:27.709Z,984.05
2018-11-23T09:34:27.666Z,984.05
2018-11-23T09:35:27.631Z,984.09
2018-11-23T09:36:27.587Z,984.06
2018-11-23T09:37:27.546Z,984.03
2018-11-23T09:38:27.509Z,984.06
2018-11-23T09:39:27.459Z,984.05
2018-11-23T09:40:27.419Z,984.04
2018-11-23T09:41:27.378Z,984.02
2018-11-23T09:42:27.335Z,984.03
2018-11-23T09:43:27.307Z,984.08
2018-11-23T09:44:27.256Z,984.06
2018-11-23T09:45:27.213Z,984.07
2018-11-23T09:46:27.173Z,984.00
2018-11-23T09:47:27.136Z,984.03
2018-11-23T09:48:27.092Z,984.01
2018-11-23T09:49:27.054Z,984.01
2018-11-23T09:50:27.015Z,984.00
2018-11-23T09:51:26.966Z,984.00
2018-11-23T09:52:26.926Z,984.02
2018-11-23T09:53:26.883Z,984.03
2018-11-23T09:54:26.844Z,984.01
2018-11-23T09:55:26.807Z,984.01
2018-11-23T09:56:26.762Z,984.01
2018-11-23T09:57:26.723Z,983.95
2018-11-23T09:58:26.684Z,983.97
2018-11-23T09:59:26.636Z,983.90
2018-11-23T10:00:26.597Z,983.94
2018-11-23T10:01:26.558Z,983.91
2018-11-23T10:02:26.519Z,983.91
2018-11-23T10:03:26.474Z,983.92
2018-11-23T10:04:26.449Z,983.91
2018-11-23T10:05:26.393Z,983.90
2018-11-23T10:19:48.338Z,983.72
2018-11-23T10:20:48.266Z,983.72
2018-11-23T10:21:48.224Z,983.70
2018-11-23T10:22:48.172Z,983.67
2018-11-23T10:23:48.135Z,983.67
2018-11-23T10:24:48.088Z,983.65
2018-11-23T10:25:48.042Z,983.66
2018-11-23T10:26:48.008Z,983.64
2018-11-23T10:27:47.959Z,983.65
2018-11-23T10:28:47.917Z,983.66
2018-11-23T10:29:47.879Z,983.65
2018-11-23T10:30:47.828Z,983.63
2018-11-23T10:31:47.816Z,983.61
2018-11-23T10:32:47.749Z,983.61
2018-11-23T10:33:47.710Z,983.58
2018-11-23T10:34:47.660Z,983.63
2018-11-23T10:35:47.624Z,983.61
2018-11-23T10:36:47.585Z,983.58
2018-11-23T10:37:47.539Z,983.59
2018-11-23T10:38:47.502Z,983.54
2018-11-23T10:39:47.460Z,983.60
2018-11-23T10:40:47.419Z,983.57
2018-11-23T10:41:47.381Z,983.58
2018-11-23T10:42:47.335Z,983.52
2018-11-23T10:43:47.297Z,983.53
2018-11-23T10:44:47.255Z,983.54
2018-11-23T10:45:47.211Z,983.53
2018-11-23T10:46:47.176Z,983.53
2018-11-23T10:47:47.136Z,983.47
2018-11-23T10:48:47.093Z,983.46
2018-11-23T10:49:47.048Z,983.46
2018-11-23T10:50:47.016Z,983.44
2018-11-23T10:51:46.971Z,983.45
2018-11-23T10:52:46.931Z,983.44
2018-11-23T10:53:46.907Z,983.42
2018-11-23T10:54:46.849Z,983.41
2018-11-23T10:55:46.809Z,983.36
2018-11-23T10:56:46.794Z,983.33
2018-11-23T10:57:46.724Z,983.37
2018-11-23T10:58:46.690Z,983.32
2018-11-23T10:59:46.647Z,983.34
2018-11-23T11:00:46.624Z,983.30
2018-11-23T11:01:46.571Z,983.29
2018-11-23T11:02:46.524Z,983.28
2018-11-23T11:03:46.485Z,983.32
2018-11-23T11:04:46.447Z,983.30
2018-11-23T11:05:46.410Z,983.27
2018-11-23T11:06:46.363Z,983.29
2018-11-23T11:07:46.324Z,983.24
2018-11-23T11:08:46.286Z,983.22
2018-11-23T11:09:46.244Z,983.23
2018-11-23T11:10:46.207Z,983.23
2018-11-23T11:11:46.166Z,983.21
2018-11-23T11:12:46.137Z,983.22
2018-11-23T11:13:46.086Z,983.20
2018-11-23T11:14:46.046Z,983.18
2018-11-23T11:15:46.003Z,983.14
2018-11-23T11:16:45.964Z,983.11
2018-11-23T11:17:45.925Z,983.09
2018-11-23T11:18:45.885Z,983.09
2018-11-23T11:19:45.847Z,983.09
2018-11-23T11:20:45.805Z,983.05
2018-11-23T11:21:45.772Z,983.07
2018-11-23T11:22:45.725Z,983.05
2018-11-23T11:23:45.687Z,983.04
2018-11-23T11:24:45.649Z,983.03
2018-11-23T11:25:45.608Z,983.00
2018-11-23T11:26:45.564Z,982.99
2018-11-23T11:27:45.525Z,983.01
2018-11-23T11:28:45.482Z,982.99
2018-11-23T11:29:45.446Z,982.99
2018-11-23T11:30:45.405Z,983.01
2018-11-23T11:31:45.372Z,982.97
2018-11-23T11:32:45.330Z,982.97
2018-11-23T11:33:45.286Z,982.99
2018-11-23T11:34:45.243Z,982.97
2018-11-23T11:35:45.202Z,983.00
2018-11-23T11:36:45.170Z,982.98
2018-11-23T11:37:45.125Z,982.98
2018-11-23T11:38:45.085Z,982.98
2018-11-23T11:39:45.042Z,982.96
2018-11-23T11:40:45.003Z,982.95
2018-11-23T11:41:44.964Z,982.94
2018-11-23T11:42:44.930Z,982.93
2018-11-23T11:43:44.888Z,982.89
2018-11-23T11:44:44.848Z,982.87
2018-11-23T11:45:44.807Z,982.91
2018-11-23T11:46:44.767Z,982.89
2018-11-23T11:47:44.722Z,982.91
2018-11-23T11:48:44.682Z,982.84
2018-11-23T11:49:44.646Z,982.81
2018-11-23T11:50:44.606Z,982.82
2018-11-23T11:51:44.572Z,982.81
2018-11-23T11:52:44.522Z,982.77
2018-11-23T11:53:44.484Z,982.78
2018-11-23T11:54:44.446Z,982.75
2018-11-23T11:55:44.408Z,982.74
2018-11-23T11:56:44.368Z,982.75
2018-11-23T11:57:44.329Z,982.72
2018-11-23T11:58:44.286Z,982.69
2018-11-23T11:59:44.244Z,982.70
2018-11-23T12:00:44.203Z,982.67
2018-11-23T12:01:44.164Z,982.66
2018-11-23T12:02:44.126Z,982.64
2018-11-23T12:03:44.088Z,982.68
2018-11-23T12:04:44.050Z,982.64
2018-11-23T12:05:44.007Z,982.66
2018-11-23T12:06:43.963Z,982.65
2018-11-23T12:07:43.921Z,982.65
2018-11-23T12:08:43.888Z,982.64
2018-11-23T12:09:43.851Z,982.61
2018-11-23T12:10:43.804Z,982.64
2018-11-23T12:11:43.765Z,982.59
2018-11-23T12:12:43.727Z,982.59
2018-11-23T12:13:43.707Z,982.58
2018-11-23T12:14:43.645Z,982.54
2018-11-23T12:15:43.607Z,982.55
2018-11-23T12:16:43.589Z,982.51
2018-11-23T12:17:43.528Z,982.52
2018-11-23T12:18:43.483Z,982.50
2018-11-23T12:19:43.442Z,982.53
2018-11-23T12:20:43.402Z,982.50
2018-11-23T12:21:43.368Z,982.47
2018-11-23T12:22:43.326Z,982.47
2018-11-23T12:23:43.290Z,982.43
2018-11-23T12:24:43.243Z,982.43
2018-11-23T12:25:43.214Z,982.43
2018-11-23T12:26:43.165Z,982.42
2018-11-23T12:27:43.130Z,982.43
2018-11-23T12:28:43.091Z,982.42
2018-11-23T12:29:43.048Z,982.40
2018-11-23T12:30:43.004Z,982.35
2018-11-23T12:31:42.963Z,982.35
2018-11-23T12:32:42.924Z,982.37
2018-11-23T12:33:42.884Z,982.30
2018-11-23T12:34:42.845Z,982.33
2018-11-23T12:35:42.810Z,982.31
2018-11-23T12:36:42.768Z,982.28
2018-11-23T12:37:42.729Z,982.26
2018-11-23T12:38:43.170Z,982.25
2018-11-23T12:39:42.643Z,982.28
2018-11-23T12:40:42.630Z,982.27
2018-11-23T12:41:42.573Z,982.26
2018-11-23T12:42:42.524Z,982.25
2018-11-23T12:43:42.482Z,982.28
2018-11-23T12:44:42.444Z,982.25
2018-11-23T12:45:42.405Z,982.25
2018-11-23T12:46:42.366Z,982.30
2018-11-23T12:47:42.330Z,982.25
2018-11-23T12:48:42.291Z,982.20
2018-11-23T12:49:42.258Z,982.18
2018-11-23T12:50:42.208Z,982.21
2018-11-23T12:51:42.164Z,982.18
2018-11-23T12:52:42.124Z,982.16
2018-11-23T12:53:42.087Z,982.16
2018-11-23T12:54:42.048Z,982.16
2018-11-23T12:55:42.011Z,982.17
2018-11-23T12:56:41.964Z,982.15
2018-11-23T12:57:41.926Z,982.14